createdAt,value
2022-07-27T00:03:13.563Z,20.03
2022-07-27T00:08:15.140Z,19.95
2022-07-27T00:13:17.264Z,19.75
2022-07-27T00:18:19.102Z,19.76
2022-07-27T00:23:20.679Z,19.70
2022-07-27T00:28:22.106Z,19.75
2022-07-27T00:33:23.623Z,19.74
2022-07-27T00:38:25.198Z,19.76
2022-07-27T00:43:26.767Z,19.86
2022-07-27T00:48:28.333Z,19.78
2022-07-27T00:53:29.911Z,19.56
2022-07-27T00:58:31.851Z,19.56
2022-07-27T01:03:33.375Z,19.57
2022-07-27T01:08:35.864Z,19.50
2022-07-27T01:13:37.732Z,19.47
2022-07-27T01:18:40.127Z,19.26
2022-07-27T01:23:41.579Z,19.33
2022-07-27T01:28:43.651Z,19.23
2022-07-27T01:33:45.232Z,19.11
2022-07-27T01:38:47.636Z,19.14
2022-07-27T01:43:49.476Z,19.18
2022-07-27T01:48:51.082Z,19.04
2022-07-27T01:53:52.765Z,19.12
2022-07-27T01:58:54.423Z,18.95
2022-07-27T02:03:55.996Z,19.02
2022-07-27T02:08:57.579Z,19.16
2022-07-27T02:13:59.159Z,19.08
2022-07-27T02:19:00.710Z,19.01
2022-07-27T02:24:06.955Z,19.03
2022-07-27T02:29:08.799Z,19.08
2022-07-27T02:34:10.651Z,19.05
2022-07-27T02:39:12.733Z,18.80
2022-07-27T02:44:15.439Z,18.72
2022-07-27T02:49:17.047Z,18.88
2022-07-27T02:54:22.171Z,18.95
2022-07-27T02:59:23.741Z,18.75
2022-07-27T03:04:25.666Z,18.80
2022-07-27T03:09:32.786Z,18.81
2022-07-27T03:14:35.207Z,18.76
2022-07-27T03:19:36.736Z,18.55
2022-07-27T03:24:38.188Z,18.30
2022-07-27T03:29:39.828Z,18.68
2022-07-27T03:34:41.275Z,18.48
2022-07-27T03:39:43.165Z,18.38
2022-07-27T03:44:44.635Z,18.51
2022-07-27T03:49:46.107Z,18.37
2022-07-27T03:54:48.199Z,18.07
2022-07-27T03:59:49.869Z,18.05
2022-07-27T04:04:51.348Z,18.25
2022-07-27T04:09:52.937Z,18.28
2022-07-27T04:14:54.549Z,18.48
2022-07-27T04:19:56.145Z,18.63
2022-07-27T04:24:57.639Z,18.70
2022-07-27T04:30:00.235Z,18.60
2022-07-27T04:35:01.683Z,18.71
2022-07-27T04:40:04.087Z,18.55
2022-07-27T04:45:06.371Z,18.66
2022-07-27T04:50:08.241Z,18.82
2022-07-27T04:55:10.336Z,18.58
2022-07-27T05:00:12.414Z,18.49
2022-07-27T05:05:13.865Z,18.57
2022-07-27T05:10:19.807Z,18.69
2022-07-27T05:15:22.164Z,18.59
2022-07-27T05:20:24.408Z,18.55
2022-07-27T05:25:25.865Z,18.56
2022-07-27T05:30:27.490Z,18.80
2022-07-27T05:35:29.670Z,18.40
2022-07-27T05:40:31.181Z,19.08
2022-07-27T05:45:32.860Z,19.15
2022-07-27T05:50:34.489Z,19.23
2022-07-27T05:55:35.942Z,19.13
2022-07-27T06:00:37.566Z,18.92
2022-07-27T06:05:39.098Z,19.25
2022-07-27T06:10:40.738Z,19.94
2022-07-27T06:15:42.335Z,20.66
2022-07-27T06:20:43.823Z,21.00
2022-07-27T06:25:45.281Z,22.84
2022-07-27T06:30:47.658Z,22.36
2022-07-27T06:35:49.227Z,27.03
2022-07-27T06:40:51.628Z,25.42
2022-07-27T06:45:53.993Z,24.08
2022-07-27T06:50:55.595Z,24.96
2022-07-27T06:55:57.160Z,29.88
2022-07-27T07:01:00.248Z,32.81
2022-07-27T07:06:01.980Z,32.68
2022-07-27T07:11:03.792Z,26.96
2022-07-27T07:16:05.698Z,23.80
2022-07-27T07:21:07.335Z,25.50
2022-07-27T07:26:08.843Z,25.82
2022-07-27T07:31:10.375Z,30.86
2022-07-27T07:36:14.295Z,36.46
2022-07-27T07:41:16.420Z,37.98
2022-07-27T07:46:17.988Z,40.85
2022-07-27T07:51:19.637Z,40.51
2022-07-27T07:56:21.164Z,40.60
2022-07-27T08:01:25.502Z,41.19
2022-07-27T08:06:27.131Z,39.03
2022-07-27T08:11:28.652Z,32.23
2022-07-27T08:16:30.304Z,30.42
2022-07-27T08:21:35.210Z,30.59
2022-07-27T08:26:37.104Z,31.23
2022-07-27T08:31:51.239Z,32.43
2022-07-27T08:36:53.341Z,31.76
2022-07-27T08:41:55.641Z,29.32
2022-07-27T08:46:58.015Z,28.75
2022-07-27T08:51:59.994Z,26.31
2022-07-27T08:57:01.582Z,26.98
2022-07-27T09:02:05.250Z,27.10
2022-07-27T09:07:07.009Z,26.50
2022-07-27T09:12:10.788Z,27.54
2022-07-27T09:22:51.836Z,26.06
2022-07-27T09:27:56.279Z,26.61
2022-07-27T09:33:03.391Z,26.36
2022-07-27T09:38:22.115Z,26.04
2022-07-27T09:48:45.282Z,27.57
2022-07-27T09:53:46.987Z,26.02
2022-07-27T09:58:50.848Z,25.85
2022-07-27T10:03:55.135Z,25.61
2022-07-27T10:08:58.429Z,24.73
2022-07-27T10:14:00.000Z,25.54
2022-07-27T10:19:40.004Z,24.89
2022-07-27T10:24:42.610Z,25.01
2022-07-27T10:29:44.134Z,25.43
2022-07-27T10:34:45.587Z,25.96
2022-07-27T10:39:52.571Z,26.00
2022-07-27T10:44:55.257Z,25.81
2022-07-27T10:50:27.836Z,26.16
2022-07-27T10:55:32.313Z,25.65
2022-07-27T11:00:53.653Z,25.46
2022-07-27T11:06:33.470Z,26.34
2022-07-27T11:11:37.479Z,25.72
2022-07-27T11:16:52.612Z,26.12
2022-07-27T11:21:57.886Z,25.93
2022-07-27T11:27:00.662Z,25.61
2022-07-27T11:32:18.624Z,25.80
2022-07-27T11:37:21.579Z,26.24
2022-07-27T11:42:24.004Z,25.66
2022-07-27T11:47:25.685Z,25.96
2022-07-27T11:52:27.155Z,25.50
2022-07-27T11:57:33.171Z,24.99
2022-07-27T12:02:34.622Z,25.49
2022-07-27T12:07:36.313Z,25.47
2022-07-27T12:12:37.872Z,25.49
2022-07-27T12:17:41.292Z,24.55
2022-07-27T12:22:42.821Z,24.44
2022-07-27T12:27:57.643Z,24.53
2022-07-27T12:32:59.505Z,25.31
2022-07-27T12:38:22.967Z,25.15
2022-07-27T12:43:25.889Z,24.76
2022-07-27T12:48:37.766Z,24.49
2022-07-27T12:53:39.333Z,23.22
2022-07-27T12:58:57.964Z,24.14
2022-07-27T13:03:59.534Z,24.61
2022-07-27T13:09:01.027Z,24.63
2022-07-27T13:14:02.545Z,24.86
2022-07-27T13:19:04.035Z,24.46
2022-07-27T13:24:06.181Z,24.86
2022-07-27T13:29:07.755Z,25.25
2022-07-27T13:34:09.290Z,25.07
2022-07-27T13:39:11.647Z,24.38
2022-07-27T13:44:35.290Z,24.29
2022-07-27T13:49:36.328Z,24.28
2022-07-27T13:54:37.888Z,25.07
2022-07-27T13:59:39.546Z,25.50
2022-07-27T14:04:41.047Z,25.68
2022-07-27T14:09:43.966Z,25.51
2022-07-27T14:14:45.482Z,25.54
2022-07-27T14:19:46.990Z,25.36
2022-07-27T14:24:48.583Z,25.25
2022-07-27T14:29:50.136Z,25.06
2022-07-27T14:34:51.663Z,25.05
2022-07-27T14:39:53.128Z,25.38
2022-07-27T14:44:54.671Z,25.40
2022-07-27T14:49:56.304Z,25.23
2022-07-27T14:54:57.890Z,25.17
2022-07-27T14:59:59.574Z,25.27
2022-07-27T15:05:01.148Z,24.88
2022-07-27T15:10:04.790Z,24.62
2022-07-27T15:15:09.435Z,24.56
2022-07-27T15:20:11.479Z,24.85
2022-07-27T15:25:13.101Z,24.65
2022-07-27T15:30:14.627Z,23.99
2022-07-27T15:35:16.176Z,24.32
2022-07-27T15:40:17.679Z,24.55
2022-07-27T15:45:21.923Z,23.95
2022-07-27T15:50:23.710Z,24.27
2022-07-27T15:55:25.202Z,24.18
2022-07-27T16:00:26.950Z,23.74
2022-07-27T16:05:30.419Z,24.06
2022-07-27T16:10:31.891Z,23.93
2022-07-27T16:15:34.581Z,23.75
2022-07-27T16:20:36.206Z,23.38
2022-07-27T16:26:01.280Z,23.42
2022-07-27T16:30:59.257Z,23.30
2022-07-27T16:36:00.849Z,23.08
2022-07-27T16:41:02.737Z,23.08
2022-07-27T16:46:05.609Z,22.83
2022-07-27T16:51:07.578Z,22.82
2022-07-27T16:56:10.018Z,22.72
2022-07-27T17:01:15.077Z,22.86
2022-07-27T17:06:25.114Z,22.90
2022-07-27T17:11:26.598Z,22.82
2022-07-27T17:16:28.445Z,22.82
2022-07-27T17:21:29.992Z,22.54
2022-07-27T17:26:31.511Z,22.55
2022-07-27T17:31:33.144Z,22.51
2022-07-27T17:36:34.728Z,22.45
2022-07-27T17:41:36.400Z,22.50
2022-07-27T17:46:39.021Z,22.47
2022-07-27T17:51:40.652Z,22.55
2022-07-27T17:56:42.179Z,22.45
2022-07-27T18:01:47.506Z,22.34
2022-07-27T18:06:50.072Z,22.15
2022-07-27T18:11:52.781Z,22.24
2022-07-27T18:16:54.405Z,22.10
2022-07-27T18:21:55.931Z,21.95
2022-07-27T18:26:57.427Z,21.69
2022-07-27T18:31:58.888Z,21.59
2022-07-27T18:37:00.373Z,21.48
2022-07-27T18:42:01.884Z,21.33
2022-07-27T18:47:03.407Z,21.19
2022-07-27T18:52:05.524Z,21.00
2022-07-27T18:57:07.071Z,21.00
2022-07-27T19:02:08.733Z,20.85
2022-07-27T19:07:10.589Z,20.78
2022-07-27T19:12:15.394Z,20.52
2022-07-27T19:17:17.400Z,20.48
2022-07-27T19:22:19.319Z,20.42
2022-07-27T19:27:20.887Z,20.19
2022-07-27T19:32:22.504Z,20.18
2022-07-27T19:37:24.049Z,20.16
2022-07-27T19:42:25.507Z,20.00
2022-07-27T19:47:27.031Z,19.76
2022-07-27T19:52:28.479Z,19.99
2022-07-27T19:57:29.998Z,19.93
2022-07-27T20:02:31.611Z,19.45
2022-07-27T20:07:33.191Z,19.81
2022-07-27T20:12:34.830Z,19.44
2022-07-27T20:17:36.304Z,19.35
2022-07-27T20:22:38.211Z,19.14
2022-07-27T20:27:39.813Z,19.10
2022-07-27T20:32:41.495Z,18.82
2022-07-27T20:37:45.524Z,18.50
2022-07-27T20:42:47.037Z,18.57
2022-07-27T20:47:48.539Z,18.28
2022-07-27T20:52:50.029Z,18.20
2022-07-27T20:57:51.541Z,18.35
2022-07-27T21:02:53.270Z,18.18
2022-07-27T21:07:55.454Z,18.31
2022-07-27T21:12:57.276Z,18.18
2022-07-27T21:17:58.832Z,18.09
2022-07-27T21:23:00.327Z,17.43
2022-07-27T21:28:01.836Z,17.77
2022-07-27T21:33:04.151Z,18.04
2022-07-27T21:38:05.765Z,17.56
2022-07-27T21:43:07.241Z,17.44
2022-07-27T21:48:08.802Z,17.63
2022-07-27T21:53:11.881Z,17.74
2022-07-27T21:58:13.395Z,17.31
2022-07-27T22:03:15.054Z,17.27
2022-07-27T22:08:16.530Z,17.10
2022-07-27T22:13:18.032Z,17.37
2022-07-27T22:18:20.737Z,17.02
2022-07-27T22:23:22.209Z,17.17
2022-07-27T22:28:25.480Z,16.97
2022-07-27T22:33:27.898Z,16.63
2022-07-27T22:38:30.675Z,16.93
2022-07-27T22:43:32.450Z,16.83
2022-07-27T22:48:34.476Z,16.63
2022-07-27T22:53:36.130Z,16.64
2022-07-27T22:58:37.726Z,16.30
2022-07-27T23:03:39.466Z,16.47
2022-07-27T23:08:43.013Z,16.46
2022-07-27T23:13:46.738Z,16.34
2022-07-27T23:18:48.259Z,15.60
2022-07-27T23:23:53.306Z,16.00
2022-07-27T23:28:56.198Z,15.84
2022-07-27T23:33:57.787Z,15.85
2022-07-27T23:38:59.437Z,15.76
2022-07-27T23:44:01.627Z,15.95
2022-07-27T23:49:03.268Z,15.63
2022-07-27T23:54:04.918Z,15.86
2022-07-27T23:59:06.750Z,15.73
